createdAt,value
2023-05-19T00:03:23.849Z,7.13
2023-05-19T00:07:31.371Z,8.77
2023-05-19T00:11:37.109Z,7.63
2023-05-19T00:15:40.972Z,10.70
2023-05-19T00:19:45.030Z,7.03
2023-05-19T00:23:48.041Z,6.93
2023-05-19T00:27:52.632Z,6.77
2023-05-19T00:31:55.754Z,7.93
2023-05-19T00:35:58.635Z,6.13
2023-05-19T00:40:01.733Z,6.83
2023-05-19T00:44:08.031Z,7.33
2023-05-19T00:48:10.942Z,8.10
2023-05-19T00:52:14.306Z,8.17
2023-05-19T00:56:17.794Z,8.30
2023-05-19T01:00:22.626Z,7.20
2023-05-19T01:04:25.548Z,9.40
2023-05-19T01:08:29.191Z,8.57
2023-05-19T01:12:32.026Z,8.13
2023-05-19T01:16:41.184Z,7.70
2023-05-19T01:20:48.372Z,8.87
2023-05-19T01:25:20.955Z,8.90
2023-05-19T01:29:38.143Z,7.40
2023-05-19T01:33:44.637Z,8.50
2023-05-19T01:37:48.528Z,7.73
2023-05-19T01:41:52.282Z,7.80
2023-05-19T01:45:58.573Z,9.97
2023-05-19T01:50:02.896Z,6.70
2023-05-19T01:54:05.881Z,7.37
2023-05-19T01:58:16.567Z,9.43
2023-05-19T02:02:30.492Z,6.90
2023-05-19T02:06:42.732Z,8.70
2023-05-19T02:10:56.441Z,8.50
2023-05-19T02:15:04.549Z,11.50
2023-05-19T02:19:21.799Z,9.67
2023-05-19T02:23:27.648Z,9.07
2023-05-19T02:27:33.465Z,9.83
2023-05-19T02:31:36.265Z,10.77
2023-05-19T02:35:39.127Z,10.23
2023-05-19T02:39:43.779Z,8.53
2023-05-19T02:43:46.520Z,9.03
2023-05-19T02:47:49.986Z,11.27
2023-05-19T02:51:52.832Z,8.70
2023-05-19T02:55:57.022Z,10.17
2023-05-19T02:59:59.782Z,9.70
2023-05-19T03:04:02.773Z,8.47
2023-05-19T03:08:06.230Z,11.83
2023-05-19T03:12:10.776Z,11.10
2023-05-19T03:16:14.071Z,12.47
2023-05-19T03:20:17.429Z,11.63
2023-05-19T03:24:20.922Z,12.93
2023-05-19T03:28:27.246Z,9.97
2023-05-19T03:32:30.140Z,8.10
2023-05-19T03:36:33.093Z,11.93
2023-05-19T03:40:37.594Z,11.00
2023-05-19T03:44:47.230Z,10.43
2023-05-19T03:48:51.223Z,9.00
2023-05-19T03:52:53.920Z,10.00
2023-05-19T03:57:03.953Z,10.77
2023-05-19T04:01:08.480Z,10.73
2023-05-19T04:05:12.029Z,12.03
2023-05-19T04:09:16.924Z,8.83
2023-05-19T04:13:19.732Z,11.03
2023-05-19T04:17:26.337Z,11.10
2023-05-19T04:21:31.285Z,9.27
2023-05-19T04:25:35.956Z,10.93
2023-05-19T04:29:38.936Z,11.47
2023-05-19T04:33:43.445Z,11.77
2023-05-19T04:37:46.896Z,12.13
2023-05-19T04:41:51.483Z,11.47
2023-05-19T04:45:54.748Z,13.40
2023-05-19T04:50:00.786Z,12.07
2023-05-19T04:54:04.966Z,10.90
2023-05-19T04:58:09.658Z,8.87
2023-05-19T05:02:13.393Z,10.13
2023-05-19T05:06:18.255Z,10.83
2023-05-19T05:10:21.868Z,13.53
2023-05-19T05:14:25.485Z,12.17
2023-05-19T05:18:29.118Z,12.47
2023-05-19T05:22:38.666Z,13.03
2023-05-19T05:26:43.210Z,12.30
2023-05-19T05:30:46.561Z,10.10
2023-05-19T05:34:52.170Z,14.37
2023-05-19T05:38:56.626Z,11.57
2023-05-19T05:42:59.961Z,11.97
2023-05-19T05:47:07.981Z,13.53
2023-05-19T05:51:12.125Z,12.83
2023-05-19T05:55:18.352Z,10.87
2023-05-19T05:59:21.423Z,9.97
2023-05-19T06:03:24.887Z,9.47
2023-05-19T06:07:29.000Z,9.57
2023-05-19T06:11:37.887Z,10.57
2023-05-19T06:15:41.706Z,10.53
2023-05-19T06:19:54.320Z,12.60
2023-05-19T06:23:57.996Z,9.07
2023-05-19T06:28:05.980Z,9.00
2023-05-19T06:32:09.282Z,11.13
2023-05-19T06:36:12.531Z,7.80
2023-05-19T06:40:18.211Z,11.93
2023-05-19T06:44:24.175Z,8.27
2023-05-19T06:48:27.070Z,9.30
2023-05-19T06:52:30.079Z,8.33
2023-05-19T06:56:33.060Z,9.20
2023-05-19T07:00:38.295Z,8.87
2023-05-19T07:04:43.959Z,6.37
2023-05-19T07:08:51.278Z,9.00
2023-05-19T07:12:55.786Z,7.30
2023-05-19T07:17:03.466Z,6.97
2023-05-19T07:21:07.249Z,7.40
2023-05-19T07:25:11.724Z,8.93
2023-05-19T07:29:15.854Z,6.63
2023-05-19T07:33:23.490Z,6.00
2023-05-19T07:37:26.655Z,6.97
2023-05-19T07:41:29.738Z,6.37
2023-05-19T07:45:32.715Z,6.23
2023-05-19T07:49:40.568Z,7.37
2023-05-19T07:53:43.850Z,7.50
2023-05-19T07:57:48.736Z,7.33
2023-05-19T08:01:55.191Z,5.63
2023-05-19T08:06:00.128Z,7.20
2023-05-19T08:10:20.072Z,6.43
2023-05-19T08:14:23.248Z,6.73
2023-05-19T08:18:50.498Z,6.80
2023-05-19T08:23:14.891Z,5.07
2023-05-19T08:27:18.269Z,4.80
2023-05-19T08:31:22.489Z,5.23
2023-05-19T08:35:25.956Z,7.33
2023-05-19T08:39:33.157Z,6.30
2023-05-19T08:43:35.992Z,6.57
2023-05-19T08:47:39.097Z,4.40
2023-05-19T08:51:52.046Z,3.63
2023-05-19T08:56:04.085Z,3.50
2023-05-19T09:00:11.779Z,4.47
2023-05-19T09:04:20.874Z,4.37
2023-05-19T09:08:25.068Z,4.33
2023-05-19T09:12:31.520Z,4.53
2023-05-19T09:16:34.596Z,3.07
2023-05-19T09:20:41.510Z,3.70
2023-05-19T09:24:44.782Z,5.03
2023-05-19T09:28:49.825Z,5.07
2023-05-19T09:32:53.107Z,4.47
2023-05-19T09:36:58.010Z,3.73
2023-05-19T09:41:02.340Z,6.37
2023-05-19T09:45:08.166Z,4.17
2023-05-19T09:49:13.311Z,4.43
2023-05-19T09:53:18.608Z,4.83
2023-05-19T09:57:28.281Z,4.23
2023-05-19T10:01:41.215Z,3.80
2023-05-19T10:06:04.931Z,5.53
2023-05-19T10:10:20.489Z,3.93
2023-05-19T10:14:24.912Z,3.47
2023-05-19T10:18:31.758Z,6.23
2023-05-19T10:22:34.853Z,3.53
2023-05-19T10:26:38.588Z,4.00
2023-05-19T10:30:43.985Z,5.83
2023-05-19T10:35:10.976Z,3.47
2023-05-19T10:39:18.957Z,3.37
2023-05-19T10:43:32.032Z,2.58
2023-05-19T10:47:38.785Z,3.47
2023-05-19T10:51:56.912Z,5.10
2023-05-19T10:56:30.140Z,3.77
2023-05-19T11:01:01.272Z,5.23
2023-05-19T11:05:11.153Z,4.03
2023-05-19T11:09:17.086Z,4.63
2023-05-19T11:13:22.735Z,3.87
2023-05-19T11:17:27.486Z,3.83
2023-05-19T11:21:50.458Z,4.63
2023-05-19T11:25:56.989Z,4.57
2023-05-19T11:30:01.965Z,3.03
2023-05-19T11:34:07.624Z,7.37
2023-05-19T11:38:12.236Z,4.23
2023-05-19T11:42:16.884Z,4.10
2023-05-19T11:46:35.109Z,6.47
2023-05-19T11:51:01.604Z,4.27
2023-05-19T11:55:22.146Z,5.87
2023-05-19T11:59:34.931Z,3.93
2023-05-19T12:03:46.523Z,4.53
2023-05-19T12:07:52.450Z,4.33
2023-05-19T12:11:56.499Z,4.37
2023-05-19T12:16:02.374Z,3.77
2023-05-19T12:20:06.654Z,3.80
2023-05-19T12:24:11.022Z,5.80
2023-05-19T12:28:14.344Z,5.18
2023-05-19T12:32:20.274Z,4.25
2023-05-19T12:36:54.445Z,6.03
2023-05-19T12:41:20.560Z,3.08
2023-05-19T12:45:45.735Z,2.43
2023-05-19T12:50:11.168Z,3.67
2023-05-19T12:54:15.498Z,3.65
2023-05-19T12:58:21.430Z,3.73
2023-05-19T13:02:25.742Z,3.50
2023-05-19T13:06:30.409Z,3.78
2023-05-19T13:10:35.520Z,3.75
2023-05-19T13:14:40.601Z,2.97
2023-05-19T13:18:48.665Z,2.53
2023-05-19T13:22:55.423Z,2.70
2023-05-19T13:27:13.498Z,2.53
2023-05-19T13:31:26.397Z,4.28
2023-05-19T13:35:45.920Z,4.35
2023-05-19T13:40:01.491Z,3.88
2023-05-19T13:44:04.531Z,3.77
2023-05-19T13:48:08.866Z,2.88
2023-05-19T13:52:19.586Z,3.55
2023-05-19T13:56:23.728Z,5.03
2023-05-19T14:00:27.082Z,2.90
2023-05-19T14:04:38.247Z,6.15
2023-05-19T14:08:42.265Z,4.40
2023-05-19T14:13:14.045Z,3.15
2023-05-19T14:17:11.355Z,2.72
2023-05-19T14:21:21.302Z,5.03
2023-05-19T14:25:50.220Z,3.00
2023-05-19T14:30:20.638Z,4.13
2023-05-19T14:34:38.133Z,2.73
2023-05-19T14:38:50.361Z,3.93
2023-05-19T14:42:54.667Z,3.70
2023-05-19T14:46:59.892Z,4.37
2023-05-19T14:51:05.515Z,2.40
2023-05-19T14:55:12.820Z,4.93
2023-05-19T14:59:17.939Z,5.07
2023-05-19T15:03:23.222Z,2.60
2023-05-19T15:07:46.205Z,3.20
2023-05-19T15:12:03.938Z,2.50
2023-05-19T15:16:25.618Z,5.17
2023-05-19T15:20:51.414Z,4.47
2023-05-19T15:25:00.917Z,3.10
2023-05-19T15:29:03.985Z,2.87
2023-05-19T15:33:07.094Z,2.90
2023-05-19T15:37:11.406Z,2.47
2023-05-19T15:41:14.826Z,3.37
2023-05-19T15:45:22.721Z,2.77
2023-05-19T15:49:31.587Z,3.03
2023-05-19T15:53:37.351Z,5.27
2023-05-19T15:57:40.904Z,5.77
2023-05-19T16:01:58.680Z,2.77
2023-05-19T16:06:13.982Z,2.87
2023-05-19T16:10:35.175Z,2.57
2023-05-19T16:14:47.700Z,3.97
2023-05-19T16:18:50.923Z,2.77
2023-05-19T16:22:55.430Z,3.70
2023-05-19T16:26:59.787Z,4.17
2023-05-19T16:31:02.678Z,2.80
2023-05-19T16:35:06.407Z,2.17
2023-05-19T16:39:15.614Z,2.90
2023-05-19T16:43:20.987Z,3.10
2023-05-19T16:47:24.161Z,2.63
2023-05-19T16:51:28.793Z,1.90
2023-05-19T16:55:35.998Z,3.53
2023-05-19T16:59:58.741Z,2.30
2023-05-19T17:04:21.161Z,3.63
2023-05-19T17:08:33.274Z,2.50
2023-05-19T17:12:36.916Z,5.60
2023-05-19T17:16:41.886Z,4.27
2023-05-19T17:20:45.390Z,2.93
2023-05-19T17:24:49.184Z,2.07
2023-05-19T17:28:52.757Z,2.27
2023-05-19T17:32:59.480Z,3.13
2023-05-19T17:37:03.301Z,2.80
2023-05-19T17:41:09.782Z,4.10
2023-05-19T17:45:13.143Z,2.07
2023-05-19T17:49:17.517Z,4.17
2023-05-19T17:53:21.562Z,11.60
2023-05-19T17:57:32.132Z,4.00
2023-05-19T18:01:36.821Z,2.53
2023-05-19T18:05:43.304Z,2.77
2023-05-19T18:09:47.208Z,4.47
2023-05-19T18:13:50.088Z,2.57
2023-05-19T18:17:53.089Z,3.13
2023-05-19T18:21:57.469Z,2.63
2023-05-19T18:26:01.497Z,3.20
2023-05-19T18:30:06.747Z,3.77
2023-05-19T18:34:10.693Z,3.63
2023-05-19T18:38:37.445Z,5.20
2023-05-19T18:42:40.924Z,3.97
2023-05-19T18:46:44.137Z,2.90
2023-05-19T18:50:49.768Z,3.87
2023-05-19T18:54:54.369Z,2.73
2023-05-19T18:58:58.330Z,2.93
2023-05-19T19:03:02.949Z,2.20
2023-05-19T19:07:08.053Z,3.17
2023-05-19T19:11:13.114Z,2.47
2023-05-19T19:15:16.468Z,3.67
2023-05-19T19:19:20.416Z,2.90
2023-05-19T19:23:24.133Z,3.13
2023-05-19T19:27:38.214Z,2.70
2023-05-19T19:31:50.743Z,3.17
2023-05-19T19:36:01.913Z,3.03
2023-05-19T19:40:20.169Z,3.80
2023-05-19T19:44:42.794Z,3.60
2023-05-19T19:49:00.957Z,2.30
2023-05-19T19:53:06.518Z,2.70
2023-05-19T19:57:17.003Z,3.57
2023-05-19T20:01:23.577Z,3.57
2023-05-19T20:05:27.359Z,2.97
2023-05-19T20:09:33.928Z,2.93
2023-05-19T20:13:38.940Z,2.83
2023-05-19T20:17:52.373Z,2.57
2023-05-19T20:22:12.306Z,2.50
2023-05-19T20:26:20.605Z,3.03
2023-05-19T20:30:24.209Z,2.60
2023-05-19T20:34:44.662Z,3.70
2023-05-19T20:38:58.683Z,4.83
2023-05-19T20:43:01.971Z,4.43
2023-05-19T20:47:09.575Z,4.13
2023-05-19T20:51:16.756Z,5.53
2023-05-19T20:55:19.937Z,5.10
2023-05-19T20:59:23.826Z,3.37
2023-05-19T21:03:27.185Z,3.10
2023-05-19T21:07:37.505Z,5.23
2023-05-19T21:11:41.555Z,4.67
2023-05-19T21:15:45.176Z,4.03
2023-05-19T21:19:50.598Z,3.60
2023-05-19T21:23:55.312Z,4.70
2023-05-19T21:27:59.104Z,5.00
2023-05-19T21:32:02.211Z,4.13
2023-05-19T21:36:05.926Z,5.17
2023-05-19T21:40:12.378Z,5.67
2023-05-19T21:44:15.147Z,4.80
2023-05-19T21:48:18.185Z,4.97
2023-05-19T21:52:21.897Z,5.43
2023-05-19T21:56:27.778Z,6.50
2023-05-19T22:00:31.496Z,4.93
2023-05-19T22:04:43.183Z,5.50
2023-05-19T22:08:46.008Z,4.90
2023-05-19T22:12:51.116Z,6.10
2023-05-19T22:16:54.514Z,5.83
2023-05-19T22:20:57.864Z,5.37
2023-05-19T22:25:01.760Z,9.00
2023-05-19T22:29:06.611Z,5.77
2023-05-19T22:33:11.975Z,4.77
2023-05-19T22:37:16.468Z,4.30
2023-05-19T22:41:19.994Z,7.07
2023-05-19T22:45:24.371Z,6.17
2023-05-19T22:49:29.587Z,5.73
2023-05-19T22:53:33.010Z,6.20
2023-05-19T22:57:36.718Z,5.20
2023-05-19T23:01:41.948Z,6.73
2023-05-19T23:05:46.545Z,5.57
2023-05-19T23:09:49.702Z,5.77
2023-05-19T23:13:52.739Z,5.67
2023-05-19T23:18:01.273Z,5.63
2023-05-19T23:22:04.652Z,5.13
2023-05-19T23:26:09.919Z,6.50
2023-05-19T23:30:13.712Z,6.37
2023-05-19T23:34:18.749Z,5.70
2023-05-19T23:38:21.971Z,5.07
2023-05-19T23:42:25.982Z,6.57
2023-05-19T23:46:30.052Z,5.00
2023-05-19T23:50:34.643Z,7.03
2023-05-19T23:54:38.622Z,5.00
2023-05-19T23:58:47.638Z,5.70
